createdAt,value
2023-01-28T00:01:35.047Z,63.33
2023-01-28T00:06:38.080Z,64.06
2023-01-28T00:11:40.157Z,63.45
2023-01-28T00:16:42.265Z,63.15
2023-01-28T00:21:44.373Z,64.19
2023-01-28T00:26:46.495Z,63.57
2023-01-28T00:31:49.012Z,62.90
2023-01-28T00:36:58.063Z,63.03
2023-01-28T00:42:00.181Z,62.40
2023-01-28T00:47:02.398Z,62.63
2023-01-28T00:52:04.840Z,63.27
2023-01-28T00:57:08.485Z,63.10
2023-01-28T01:02:13.757Z,62.75
2023-01-28T01:07:15.983Z,62.39
2023-01-28T01:12:18.484Z,62.59
2023-01-28T01:17:22.084Z,62.13
2023-01-28T01:22:24.340Z,62.48
2023-01-28T01:27:26.843Z,62.06
2023-01-28T01:32:33.341Z,61.44
2023-01-28T01:37:36.856Z,61.70
2023-01-28T01:42:38.975Z,61.67
2023-01-28T01:47:55.866Z,62.33
2023-01-28T01:53:03.594Z,62.82
2023-01-28T01:58:09.794Z,62.02
2023-01-28T02:03:12.488Z,62.16
2023-01-28T02:08:23.957Z,61.21
2023-01-28T02:13:32.006Z,61.90
2023-01-28T02:18:34.890Z,64.83
2023-01-28T02:23:45.372Z,64.20
2023-01-28T02:29:14.668Z,64.67
2023-01-28T02:34:35.238Z,64.33
2023-01-28T02:39:45.867Z,63.75
2023-01-28T02:44:47.996Z,63.72
2023-01-28T02:49:56.824Z,62.99
2023-01-28T02:55:10.411Z,62.56
2023-01-28T03:00:12.500Z,63.28
2023-01-28T03:05:23.509Z,62.12
2023-01-28T03:10:28.747Z,62.66
2023-01-28T03:15:58.905Z,61.74
2023-01-28T03:21:45.568Z,60.90
2023-01-28T03:27:22.448Z,61.95
2023-01-28T03:32:44.210Z,62.05
2023-01-28T03:37:46.512Z,61.52
2023-01-28T03:42:48.672Z,61.13
2023-01-28T03:47:50.919Z,60.67
2023-01-28T03:52:53.060Z,60.16
2023-01-28T03:57:55.148Z,60.16
2023-01-28T04:02:57.338Z,59.78
2023-01-28T04:07:59.451Z,60.07
2023-01-28T04:13:01.558Z,60.26
2023-01-28T04:18:03.724Z,60.44
2023-01-28T04:23:08.221Z,60.66
2023-01-28T04:28:10.343Z,59.98
2023-01-28T04:33:12.433Z,59.91
2023-01-28T04:38:14.519Z,59.70
2023-01-28T04:43:16.608Z,59.41
2023-01-28T04:48:18.828Z,59.15
2023-01-28T04:53:21.062Z,59.46
2023-01-28T04:58:23.155Z,59.15
2023-01-28T05:03:25.847Z,59.25
2023-01-28T05:08:27.993Z,59.11
2023-01-28T05:13:30.298Z,58.84
2023-01-28T05:18:32.897Z,58.99
2023-01-28T05:23:35.133Z,59.18
2023-01-28T05:28:37.440Z,58.51
2023-01-28T05:33:39.742Z,58.61
2023-01-28T05:38:42.055Z,57.96
2023-01-28T05:43:44.189Z,58.35
2023-01-28T05:48:46.534Z,58.08
2023-01-28T05:53:48.667Z,57.54
2023-01-28T05:58:50.828Z,57.87
2023-01-28T06:03:53.059Z,58.47
2023-01-28T06:08:55.498Z,58.56
2023-01-28T06:13:57.792Z,58.58
2023-01-28T06:19:00.184Z,58.32
2023-01-28T06:24:02.481Z,58.04
2023-01-28T06:29:04.702Z,57.93
2023-01-28T06:34:06.828Z,58.14
2023-01-28T06:39:09.038Z,58.03
2023-01-28T06:44:11.600Z,58.02
2023-01-28T06:49:13.741Z,58.09
2023-01-28T06:54:16.255Z,57.88
2023-01-28T06:59:18.745Z,57.83
2023-01-28T07:04:21.284Z,57.91
2023-01-28T07:09:23.617Z,58.68
2023-01-28T07:14:25.892Z,57.84
2023-01-28T07:19:28.314Z,58.35
2023-01-28T07:24:31.220Z,58.00
2023-01-28T07:29:37.495Z,58.19
2023-01-28T07:34:42.089Z,58.04
2023-01-28T07:39:46.893Z,57.92
2023-01-28T07:44:50.217Z,58.38
2023-01-28T07:49:52.667Z,58.05
2023-01-28T07:54:55.867Z,58.50
2023-01-28T07:59:58.114Z,58.97
2023-01-28T08:05:01.906Z,58.61
2023-01-28T08:10:04.541Z,57.95
2023-01-28T08:15:07.878Z,56.85
2023-01-28T08:20:10.808Z,56.58
2023-01-28T08:25:13.412Z,56.86
2023-01-28T08:30:16.094Z,56.32
2023-01-28T08:35:18.403Z,56.43
2023-01-28T08:40:21.335Z,55.97
2023-01-28T08:45:30.896Z,54.87
2023-01-28T08:50:36.188Z,54.38
2023-01-28T08:55:38.872Z,54.53
2023-01-28T09:00:41.827Z,53.90
2023-01-28T09:05:45.900Z,53.78
2023-01-28T09:10:48.092Z,52.92
2023-01-28T09:15:51.590Z,52.38
2023-01-28T09:20:53.949Z,52.08
2023-01-28T09:26:04.173Z,52.12
2023-01-28T09:31:10.387Z,51.88
2023-01-28T09:36:12.652Z,52.27
2023-01-28T09:41:34.310Z,51.90
2023-01-28T09:46:38.715Z,51.54
2023-01-28T09:51:52.738Z,50.86
2023-01-28T09:57:14.999Z,50.74
2023-01-28T10:02:43.352Z,50.94
2023-01-28T10:08:13.984Z,51.15
2023-01-28T10:13:31.026Z,50.46
2023-01-28T10:18:54.653Z,50.63
2023-01-28T10:24:02.344Z,49.79
2023-01-28T10:29:18.893Z,49.41
2023-01-28T10:34:24.649Z,49.63
2023-01-28T10:39:28.833Z,49.68
2023-01-28T10:44:39.239Z,49.07
2023-01-28T10:49:55.768Z,49.03
2023-01-28T10:55:06.314Z,48.55
2023-01-28T11:00:33.768Z,47.38
2023-01-28T11:05:38.935Z,47.13
2023-01-28T11:10:41.937Z,46.82
2023-01-28T11:16:08.137Z,47.19
2023-01-28T11:21:25.121Z,47.25
2023-01-28T11:26:31.211Z,46.82
2023-01-28T11:31:43.262Z,47.12
2023-01-28T11:36:54.363Z,47.21
2023-01-28T11:42:16.640Z,46.39
2023-01-28T11:47:46.473Z,45.90
2023-01-28T11:53:07.085Z,45.62
2023-01-28T11:58:40.129Z,45.42
2023-01-28T12:03:44.985Z,45.27
2023-01-28T12:09:13.930Z,45.02
2023-01-28T12:14:39.552Z,44.93
2023-01-28T12:20:20.729Z,44.71
2023-01-28T12:25:34.708Z,45.02
2023-01-28T12:31:14.057Z,44.81
2023-01-28T12:36:28.971Z,44.46
2023-01-28T12:41:42.539Z,44.39
2023-01-28T12:46:54.045Z,44.61
2023-01-28T12:52:22.841Z,43.99
2023-01-28T12:57:31.963Z,44.14
2023-01-28T13:02:41.745Z,44.11
2023-01-28T13:07:56.800Z,43.22
2023-01-28T13:13:01.147Z,42.71
2023-01-28T13:18:06.105Z,42.01
2023-01-28T13:23:23.619Z,42.06
2023-01-28T13:28:32.886Z,41.62
2023-01-28T13:33:38.546Z,41.21
2023-01-28T13:38:42.863Z,41.11
2023-01-28T13:43:45.225Z,41.31
2023-01-28T13:48:52.514Z,41.11
2023-01-28T13:54:06.088Z,41.10
2023-01-28T13:59:26.305Z,41.31
2023-01-28T14:04:46.993Z,40.87
2023-01-28T14:10:12.268Z,40.65
2023-01-28T14:15:40.717Z,41.01
2023-01-28T14:20:46.371Z,41.05
2023-01-28T14:26:01.092Z,41.11
2023-01-28T14:31:19.089Z,40.93
2023-01-28T14:36:22.164Z,40.02
2023-01-28T14:41:28.477Z,40.23
2023-01-28T14:46:46.811Z,40.14
2023-01-28T14:52:04.036Z,40.63
2023-01-28T14:57:43.635Z,39.46
2023-01-28T15:02:46.093Z,38.99
2023-01-28T15:07:49.617Z,39.22
2023-01-28T15:12:56.619Z,39.37
2023-01-28T15:18:04.323Z,40.22
2023-01-28T15:23:09.538Z,40.72
2023-01-28T15:28:41.277Z,40.96
2023-01-28T15:33:43.482Z,41.71
2023-01-28T15:38:45.690Z,41.95
2023-01-28T15:43:51.187Z,42.83
2023-01-28T15:49:17.657Z,43.26
2023-01-28T15:54:20.899Z,44.12
2023-01-28T15:59:28.266Z,44.43
2023-01-28T16:04:30.878Z,45.06
2023-01-28T16:09:34.783Z,45.65
2023-01-28T16:14:50.953Z,46.56
2023-01-28T16:20:04.912Z,46.99
2023-01-28T16:25:22.079Z,47.40
2023-01-28T16:30:24.646Z,47.47
2023-01-28T16:35:47.163Z,48.31
2023-01-28T16:40:55.555Z,48.62
2023-01-28T16:45:58.061Z,48.24
2023-01-28T16:51:00.389Z,48.14
2023-01-28T16:56:03.211Z,48.85
2023-01-28T17:01:05.750Z,48.88
2023-01-28T17:06:09.388Z,49.08
2023-01-28T17:11:12.043Z,49.33
2023-01-28T17:16:14.274Z,49.39
2023-01-28T17:21:16.930Z,49.43
2023-01-28T17:26:19.244Z,49.38
2023-01-28T17:31:22.515Z,49.72
2023-01-28T17:36:26.073Z,49.36
2023-01-28T17:41:28.461Z,49.60
2023-01-28T17:46:30.628Z,49.37
2023-01-28T17:51:33.027Z,49.62
2023-01-28T17:56:35.173Z,50.47
2023-01-28T18:01:37.831Z,50.88
2023-01-28T18:06:40.214Z,51.54
2023-01-28T18:11:43.031Z,51.28
2023-01-28T18:16:45.226Z,51.28
2023-01-28T18:21:52.971Z,51.44
2023-01-28T18:27:00.767Z,51.39
2023-01-28T18:32:03.119Z,51.34
2023-01-28T18:37:07.060Z,51.33
2023-01-28T18:42:09.247Z,55.42
2023-01-28T18:47:11.817Z,54.75
2023-01-28T18:52:13.923Z,54.44
2023-01-28T18:57:16.198Z,54.45
2023-01-28T19:02:20.363Z,53.33
2023-01-28T19:07:22.809Z,52.49
2023-01-28T19:12:25.087Z,52.56
2023-01-28T19:17:27.520Z,52.82
2023-01-28T19:22:29.859Z,52.70
2023-01-28T19:27:32.136Z,53.18
2023-01-28T19:32:34.620Z,53.21
2023-01-28T19:37:36.942Z,52.81
2023-01-28T19:42:40.117Z,52.28
2023-01-28T19:47:42.540Z,52.87
2023-01-28T19:52:44.983Z,53.30
2023-01-28T19:57:47.104Z,53.98
2023-01-28T20:02:52.494Z,53.67
2023-01-28T20:07:54.710Z,53.51
2023-01-28T20:12:56.934Z,53.22
2023-01-28T20:17:59.150Z,53.33
2023-01-28T20:23:05.935Z,53.50
2023-01-28T20:28:08.140Z,53.65
2023-01-28T20:33:10.411Z,53.49
2023-01-28T20:38:14.416Z,52.77
2023-01-28T20:43:16.656Z,53.02
2023-01-28T20:48:18.813Z,53.03
2023-01-28T20:53:21.144Z,53.34
2023-01-28T20:58:23.391Z,53.15
2023-01-28T21:03:26.386Z,53.35
2023-01-28T21:08:28.636Z,52.70
2023-01-28T21:13:30.874Z,53.53
2023-01-28T21:18:33.522Z,53.52
2023-01-28T21:23:36.115Z,53.47
2023-01-28T21:28:38.749Z,53.81
2023-01-28T21:33:43.399Z,53.50
2023-01-28T21:38:46.421Z,53.40
2023-01-28T21:43:55.212Z,53.43
2023-01-28T21:48:59.687Z,53.51
2023-01-28T21:54:03.294Z,54.38
2023-01-28T21:59:24.128Z,54.50
2023-01-28T22:04:37.050Z,54.60
2023-01-28T22:09:40.525Z,54.46
2023-01-28T22:14:44.192Z,54.34
2023-01-28T22:19:48.715Z,54.64
2023-01-28T22:24:51.132Z,54.48
2023-01-28T22:29:54.215Z,54.58
2023-01-28T22:34:56.358Z,54.79
2023-01-28T22:39:58.509Z,54.71
2023-01-28T22:45:00.692Z,54.67
2023-01-28T22:50:02.941Z,54.40
2023-01-28T22:55:05.540Z,54.54
2023-01-28T23:00:15.169Z,54.17
2023-01-28T23:05:17.749Z,53.97
2023-01-28T23:10:21.176Z,54.14
2023-01-28T23:15:42.031Z,54.26
2023-01-28T23:21:02.630Z,54.72
2023-01-28T23:26:06.792Z,54.83
2023-01-28T23:31:09.282Z,54.73
2023-01-28T23:36:11.490Z,54.40
2023-01-28T23:41:13.694Z,54.45
2023-01-28T23:46:15.909Z,54.25
2023-01-28T23:51:19.367Z,54.32
2023-01-28T23:56:21.547Z,54.11
